< < Back
Terminal Aerodrome Forecast


Current Version              Previous Versions:   1  2  3  4  5  6  7  8  9  

Terminal Aerodrome Forecast

015
FTUS42 KJAX 231700 AAF
TAFSSI
TAF AMD
KSSI 231700Z 2317/2412 15004KT P6SM BKN002
     FM231900 17015G25KT P6SM VCTS BKN035CB
     FM240100 18012KT P6SM VCSH SCT035 BKN050=



Latest METAR

148
SAUS70 KWBC 231900 RRG
MTRSSI
METAR KSSI 231853Z AUTO 13006KT 6SM BR BKN002 OVC036 19/19 A2989 RMK AO2
SLP121 T01940194


USA.gov is the U.S. government's official web portal to all federal, state and local government web resources and services.